• Join FlightAware (Why Join?)
  • Login
  • US Flag 
09:04AM EST


 

Airport Tracker/Info


-or-


 

Live Flight TrackerFlight Track Log ✈ PDT4155 ✈ 18-Dec-2013 ✈ KBGM - KPHL

Flight Track Log - Related Links

Times and Time Zones

All times are in EST time to prevent confusion due to time zone crossing. See the PDT4155 flight status page for this flight to view local times or setup timezone preferences in your user account.

Time Position Orientation Groundspeed Altitude Reporting Facility
EST Latitude Longitude Course Direction KTS MPH feet Rate Location/Type
07:26AM 42.0001 -75.9115 180° South  Level Estimated
07:27AM 41.9288 -75.9177 184° South  Level FlightAware Approximate
07:28AM 41.8595 -75.8942 154° Southeast  Level Estimated
07:29AM 41.7902 -75.8707 160° South  Level Estimated
07:30AM 41.7209 -75.8473 159° South  Level Estimated
07:31AM 41.6504 -75.8322 171° South  Level FlightAware Approximate
07:32AM 41.5811 -75.8085 153° Southeast  Level Estimated
07:33AM 41.5119 -75.7849 161° South  Level Estimated
07:34AM 41.4436 -75.7566 163° South  Level FlightAware Approximate
07:35AM 41.3744 -75.7333 162° South  Level Estimated
07:36AM 41.3066 -75.7030 161° South  Level FlightAware Approximate
07:37AM 41.2389 -75.6728 161° South  Level FlightAware Approximate
07:38AM 41.1711 -75.6426 161° South  Level FlightAware Approximate
07:39AM 41.1016 -75.6207 159° South  Level Estimated
07:40AM 41.0320 -75.5988 163° South  Level Estimated
07:41AM 40.9647 -75.5669 160° South  Level FlightAware Approximate
07:42AM 40.8974 -75.5351 160° South  Level FlightAware Approximate
07:43AM 40.8301 -75.5034 160° South  Level FlightAware Approximate
07:44AM 40.7602 -75.4839 190° South  Level Estimated
07:45AM 40.6888 -75.4884 183° South  Level FlightAware Approximate
07:46AM 40.6175 -75.4928 183° South  Level FlightAware Approximate
07:47AM 40.5483 -75.4691 187° South  Level Estimated
07:48AM 40.4791 -75.4456 190° South  Level Estimated
07:48AM 40.7333 -75.4667 143° Southeast 255 293 8,000  Level Philadelphia TRACON
07:48AM 40.7167 -75.4500 143° Southeast 254 292 8,000 -720 Level Philadelphia TRACON
07:49AM 40.4116 -75.4764 199° South  Level FlightAware Approximate
07:49AM 40.6500 -75.4667 191° South 251 289 7,200  Level Philadelphia TRACON
07:50AM 40.3438 -75.4466 180° South  Level Estimated
07:50AM 40.5833 -75.4833 191° South 270 311 6,200  Level Philadelphia TRACON
07:51AM 40.2761 -75.4168 143° Southeast  Level Estimated
07:51AM 40.5167 -75.4500 159° South 269 310 5,200  Level Philadelphia TRACON
07:52AM 40.2053 -75.4302 188° South  Level FlightAware Approximate
07:52AM 40.4500 -75.4167 159° South 263 303 4,900  Level Philadelphia TRACON
07:53AM 40.1398 -75.3928 143° Southeast  Level Estimated
07:53AM 40.3833 -75.4000 169° South 254 292 4,900  Level Philadelphia TRACON
07:54AM 40.3000 -75.3667 163° South 252 290 4,900 -420 Level Philadelphia TRACON
07:55AM 40.2333 -75.3333 159° South 271 312 4,100 -480 Descending Philadelphia TRACON
07:56AM 40.1667 -75.3000 159° South 262 302 4,000 -60 Descending Philadelphia TRACON
07:57AM 40.1000 -75.2667 159° South 255 293 4,000  Level Philadelphia TRACON
07:58AM 40.0333 -75.2333 159° South 253 291 4,000  Level Philadelphia TRACON
07:59AM 39.9833 -75.2000 153° Southeast 228 262 4,000  Level Philadelphia TRACON
08:00AM 39.9167 -75.1667 159° South 232 267 4,000  Level Philadelphia TRACON
08:01AM 39.8667 -75.1333 153° Southeast 231 266 4,000 -540 Level Philadelphia TRACON
08:02AM 39.8000 -75.1000 159° South 224 258 3,000 -1,080 Descending Philadelphia TRACON
08:03AM 39.7667 -75.1333 218° Southwest 162 186 1,900 -840 Descending Philadelphia TRACON
08:04AM 39.7667 -75.1833 270° West 161 185 1,400 -300 Descending Philadelphia TRACON
08:05AM 39.8167 -75.2000 346° North 138 159 1,400 -420 Level Philadelphia TRACON
08:06AM 39.8500 -75.2167 339° North 129 148 600 -840 Descending Philadelphia TRACON